createdAt,value
2019-04-25T00:05:06.142Z,95285.19
2019-04-25T00:10:11.735Z,95287.91
2019-04-25T00:15:18.165Z,95284.22
2019-04-25T00:20:24.510Z,95283.87
2019-04-25T00:25:31.403Z,95279.42
2019-04-25T00:30:36.235Z,95290.31
2019-04-25T00:35:42.530Z,95282.98
2019-04-25T00:40:48.081Z,95284.53
2019-04-25T00:45:52.830Z,95284.30
2019-04-25T00:50:58.437Z,95289.98
2019-04-25T00:56:03.024Z,95289.86
2019-04-25T01:01:12.167Z,95285.02
2019-04-25T01:06:16.885Z,95289.17
2019-04-25T01:11:21.593Z,95289.70
2019-04-25T01:16:27.392Z,95292.61
2019-04-25T01:21:31.942Z,95289.63
2019-04-25T01:26:36.529Z,95292.50
2019-04-25T01:31:41.611Z,95306.06
2019-04-25T01:36:50.824Z,95301.61
2019-04-25T01:42:06.284Z,95303.74
2019-04-25T01:47:14.105Z,95299.12
2019-04-25T01:52:19.975Z,95303.11
2019-04-25T01:57:24.608Z,95294.52
2019-04-25T02:02:30.590Z,95291.76
2019-04-25T02:07:35.243Z,95292.11
2019-04-25T02:12:43.567Z,95287.55
2019-04-25T02:17:48.415Z,95293.48
2019-04-25T02:22:55.242Z,95281.25
2019-04-25T02:28:01.506Z,95276.67
2019-04-25T02:33:08.888Z,95277.39
2019-04-25T02:38:14.715Z,95276.02
2019-04-25T02:43:18.429Z,95280.36
2019-04-25T02:48:41.047Z,95282.67
2019-04-25T02:53:47.288Z,95287.64
2019-04-25T02:58:54.149Z,95285.42
2019-04-25T03:03:59.408Z,95295.75
2019-04-25T03:09:09.812Z,95298.37
2019-04-25T03:14:14.817Z,95296.33
2019-04-25T03:19:24.373Z,95301.73
2019-04-25T03:24:31.620Z,95294.11
2019-04-25T03:29:38.886Z,95294.41
2019-04-25T03:34:43.801Z,95289.12
2019-04-25T03:39:48.288Z,95295.65
2019-04-25T03:44:53.829Z,95301.91
2019-04-25T03:49:58.476Z,95298.86
2019-04-25T03:55:05.175Z,95297.37
2019-04-25T04:00:10.783Z,95303.91
2019-04-25T04:05:15.504Z,95308.14
2019-04-25T04:10:21.266Z,95316.97
2019-04-25T04:15:25.965Z,95314.44
2019-04-25T04:20:38.165Z,95327.73
2019-04-25T04:25:43.354Z,95328.03
2019-04-25T04:30:47.976Z,95335.16
2019-04-25T04:35:54.317Z,95347.77
2019-04-25T04:40:58.918Z,95348.91
2019-04-25T04:46:04.014Z,95353.30
2019-04-25T04:51:13.045Z,95358.66
2019-04-25T04:56:17.926Z,95349.03
2019-04-25T05:01:24.798Z,95353.13
2019-04-25T05:06:33.797Z,95364.50
2019-04-25T05:11:38.690Z,95372.39
2019-04-25T05:16:43.318Z,95363.54
2019-04-25T05:21:47.886Z,95363.54
2019-04-25T05:26:53.966Z,95373.08
2019-04-25T05:31:58.619Z,95370.53
2019-04-25T05:37:03.806Z,95366.02
2019-04-25T05:42:10.659Z,95367.85
2019-04-25T05:47:16.283Z,95373.38
2019-04-25T05:52:21.975Z,95371.02
2019-04-25T05:57:26.767Z,95362.05
2019-04-25T06:02:31.414Z,95360.66
2019-04-25T06:07:36.910Z,95365.84
2019-04-25T06:12:46.253Z,95365.51
2019-04-25T06:17:53.417Z,95370.60
2019-04-25T06:23:06.716Z,95380.63
2019-04-25T06:28:20.285Z,95381.20
2019-04-25T06:33:25.933Z,95377.71
2019-04-25T06:38:32.027Z,95377.15
2019-04-25T06:43:39.959Z,95375.27
2019-04-25T06:48:49.487Z,95373.31
2019-04-25T06:53:54.642Z,95379.85
2019-04-25T06:58:59.261Z,95380.27
2019-04-25T07:04:04.419Z,95388.73
2019-04-25T07:09:10.898Z,95386.43
2019-04-25T07:14:15.583Z,95380.42
2019-04-25T07:19:20.187Z,95385.25
2019-04-25T07:24:25.841Z,95376.00
2019-04-25T07:29:43.333Z,95383.95
2019-04-25T07:34:48.456Z,95374.82
2019-04-25T07:39:54.186Z,95374.80
2019-04-25T07:44:59.838Z,95371.65
2019-04-25T07:50:06.545Z,95374.71
2019-04-25T07:55:11.483Z,95371.62
2019-04-25T08:00:17.841Z,95359.16
2019-04-25T08:05:24.073Z,95346.43
2019-04-25T08:10:58.487Z,95346.84
2019-04-25T08:16:04.793Z,95354.16
2019-04-25T08:21:09.471Z,95354.55
2019-04-25T08:26:14.270Z,95355.33
2019-04-25T08:31:19.028Z,95355.22
2019-04-25T08:36:23.686Z,95346.76
2019-04-25T08:41:28.369Z,95350.89
2019-04-25T08:46:35.799Z,95333.05
2019-04-25T08:51:41.003Z,95328.94
2019-04-25T08:56:45.631Z,95320.94
2019-04-25T09:01:53.486Z,95313.51
2019-04-25T09:06:58.208Z,95310.26
2019-04-25T09:12:04.198Z,95294.17
2019-04-25T09:17:11.567Z,95292.30
2019-04-25T09:22:18.749Z,95292.23
2019-04-25T09:27:23.588Z,95286.48
2019-04-25T09:32:28.323Z,95284.28
2019-04-25T09:37:33.570Z,95284.16
2019-04-25T09:42:39.992Z,95286.33
2019-04-25T09:47:46.201Z,95278.35
2019-04-25T09:52:50.938Z,95273.14
2019-04-25T09:57:57.122Z,95264.20
2019-04-25T10:03:02.232Z,95259.13
2019-04-25T10:08:06.921Z,95259.47
2019-04-25T10:13:11.550Z,95240.78
2019-04-25T10:18:16.352Z,95232.39
2019-04-25T10:23:21.008Z,95234.05
2019-04-25T10:28:27.364Z,95235.05
2019-04-25T10:33:33.465Z,95227.07
2019-04-25T10:38:40.125Z,95223.25
2019-04-25T10:43:45.987Z,95215.34
2019-04-25T10:48:50.695Z,95215.05
2019-04-25T10:53:55.971Z,95208.58
2019-04-25T10:59:01.123Z,95198.67
2019-04-25T11:04:08.179Z,95193.61
2019-04-25T11:09:17.372Z,95191.16
2019-04-25T11:14:23.928Z,95184.98
2019-04-25T11:19:28.708Z,95186.66
2019-04-25T11:24:34.259Z,95172.19
2019-04-25T11:29:38.977Z,95173.19
2019-04-25T11:34:46.096Z,95163.11
2019-04-25T11:40:00.935Z,95154.19
2019-04-25T11:45:07.655Z,95156.13
2019-04-25T11:50:14.029Z,95137.58
2019-04-25T11:55:19.229Z,95141.91
2019-04-25T12:00:28.445Z,95133.09
2019-04-25T12:05:34.579Z,95123.73
2019-04-25T12:10:40.271Z,95115.04
2019-04-25T12:15:46.074Z,95102.54
2019-04-25T12:20:51.506Z,95096.79
2019-04-25T12:25:56.436Z,95087.07
2019-04-25T12:31:01.438Z,95081.53
2019-04-25T12:36:06.090Z,95090.22
2019-04-25T12:41:12.892Z,95076.41
2019-04-25T12:46:21.907Z,95071.69
2019-04-25T12:51:27.237Z,95068.95
2019-04-25T12:56:31.930Z,95065.16
2019-04-25T13:01:36.575Z,95049.59
2019-04-25T13:06:41.234Z,95038.98
2019-04-25T13:11:45.998Z,95041.69
2019-04-25T13:16:51.398Z,95036.36
2019-04-25T13:21:56.084Z,95030.58
2019-04-25T13:27:09.181Z,95030.90
2019-04-25T13:32:18.469Z,95024.45
2019-04-25T13:37:24.189Z,95014.92
2019-04-25T13:42:28.968Z,95005.46
2019-04-25T13:47:34.176Z,94996.95
2019-04-25T13:52:38.745Z,94990.02
2019-04-25T13:57:43.361Z,94990.72
2019-04-25T14:02:48.217Z,94993.98
2019-04-25T14:07:52.933Z,94990.77
2019-04-25T14:12:57.764Z,94991.47
2019-04-25T14:18:18.844Z,94983.89
2019-04-25T14:23:25.715Z,94993.36
2019-04-25T14:28:31.802Z,94995.63
2019-04-25T14:33:36.677Z,94991.95
2019-04-25T14:38:41.519Z,94991.77
2019-04-25T14:43:46.490Z,94990.55
2019-04-25T14:48:51.112Z,94988.89
2019-04-25T14:53:57.218Z,94987.59
2019-04-25T14:59:02.649Z,94994.53
2019-04-25T15:04:07.730Z,94992.67
2019-04-25T15:09:12.735Z,94993.67
2019-04-25T15:14:18.903Z,95003.34
2019-04-25T15:19:25.418Z,95002.02
2019-04-25T15:24:30.423Z,95017.38
2019-04-25T15:29:38.303Z,95013.16
2019-04-25T15:34:44.940Z,95006.53
2019-04-25T15:40:06.531Z,94999.40
2019-04-25T15:45:22.138Z,94996.70
2019-04-25T15:50:27.755Z,94991.84
2019-04-25T15:55:32.766Z,94994.50
2019-04-25T16:00:39.074Z,95005.36
2019-04-25T16:05:47.374Z,95004.02
2019-04-25T16:10:51.968Z,95009.44
2019-04-25T16:15:57.544Z,95009.55
2019-04-25T16:21:02.129Z,95012.48
2019-04-25T16:26:07.215Z,95017.30
2019-04-25T16:31:13.444Z,95025.64
2019-04-25T16:36:18.159Z,95025.23
2019-04-25T16:41:23.028Z,95032.14
2019-04-25T16:46:30.418Z,95027.08
2019-04-25T16:51:35.831Z,95028.88
2019-04-25T16:56:40.448Z,95028.39
2019-04-25T17:01:45.150Z,95034.61
2019-04-25T17:06:49.872Z,95025.56
2019-04-25T17:11:56.838Z,95032.62
2019-04-25T17:17:02.905Z,95044.11
2019-04-25T17:22:07.763Z,95044.72
2019-04-25T17:27:12.706Z,95047.48
2019-04-25T17:32:49.490Z,95043.50
2019-04-25T17:37:50.943Z,95045.22
2019-04-25T17:42:55.800Z,95048.83
2019-04-25T17:48:00.486Z,95059.47
2019-04-25T17:53:05.349Z,95059.47
2019-04-25T17:58:10.073Z,95061.04
2019-04-25T18:03:15.022Z,95061.04
2019-04-25T18:08:19.666Z,95074.25
2019-04-25T18:13:24.467Z,95088.98
2019-04-25T18:18:30.735Z,95093.59
2019-04-25T18:23:52.899Z,95105.19
2019-04-25T18:29:02.432Z,95110.32
2019-04-25T18:34:09.595Z,95101.33
2019-04-25T18:39:21.849Z,95101.33
2019-04-25T18:44:26.678Z,95125.45
2019-04-25T18:49:31.562Z,95122.48
2019-04-25T18:54:41.145Z,95112.66
2019-04-25T18:59:52.954Z,95119.20
2019-04-25T19:05:15.421Z,95117.77
2019-04-25T19:10:20.250Z,95107.37
2019-04-25T19:15:28.839Z,95109.79
2019-04-25T19:20:33.533Z,95110.30
2019-04-25T19:25:38.277Z,95109.93
2019-04-25T19:30:45.110Z,95110.28
2019-04-25T19:35:49.938Z,95110.38
2019-04-25T19:41:04.946Z,95113.77
2019-04-25T19:46:09.662Z,95119.70
2019-04-25T19:51:14.416Z,95116.73
2019-04-25T19:56:19.111Z,95116.34
2019-04-25T20:01:24.005Z,95107.43
2019-04-25T20:06:47.492Z,95106.80
2019-04-25T20:11:54.024Z,95111.09
2019-04-25T20:16:58.504Z,95115.52
2019-04-25T20:22:03.213Z,95116.62
2019-04-25T20:27:07.871Z,95124.03
2019-04-25T20:32:12.516Z,95131.98
2019-04-25T20:37:17.198Z,95128.89
2019-04-25T20:42:21.853Z,95122.62
2019-04-25T20:47:26.358Z,95126.00
2019-04-25T20:52:31.033Z,95121.84
2019-04-25T20:57:35.550Z,95124.88
2019-04-25T21:02:40.465Z,95128.78
2019-04-25T21:07:45.116Z,95117.92
2019-04-25T21:12:50.299Z,95130.16
2019-04-25T21:18:05.360Z,95119.47
2019-04-25T21:23:09.865Z,95122.86
2019-04-25T21:28:14.514Z,95125.41
2019-04-25T21:33:19.145Z,95123.91
2019-04-25T21:38:24.135Z,95122.09
2019-04-25T21:43:30.440Z,95129.63
2019-04-25T21:48:35.368Z,95120.90
2019-04-25T21:53:40.280Z,95126.61
2019-04-25T21:58:45.008Z,95121.42
2019-04-25T22:03:49.776Z,95125.45
2019-04-25T22:08:56.658Z,95128.64
2019-04-25T22:14:03.296Z,95134.16
2019-04-25T22:19:08.795Z,95137.00
2019-04-25T22:24:15.994Z,95143.86
2019-04-25T22:29:20.139Z,95132.83
2019-04-25T22:34:35.603Z,95128.98
2019-04-25T22:39:40.109Z,95119.13
2019-04-25T22:44:44.581Z,95118.95
2019-04-25T22:49:49.149Z,95129.30
2019-04-25T22:54:53.948Z,95125.80
2019-04-25T22:59:58.791Z,95129.62
2019-04-25T23:05:15.758Z,95130.45
2019-04-25T23:10:17.367Z,95125.77
2019-04-25T23:15:21.951Z,95129.95
2019-04-25T23:20:26.719Z,95129.92
2019-04-25T23:25:32.957Z,95121.41
2019-04-25T23:30:55.131Z,95120.19
2019-04-25T23:35:59.848Z,95126.38
2019-04-25T23:41:05.795Z,95121.68
2019-04-25T23:46:10.508Z,95125.38
2019-04-25T23:51:15.466Z,95128.09
2019-04-25T23:56:21.287Z,95130.72
